sensor_id;sensor_type;location;lat;lon;timestamp;P1;durP1;ratioP1;P2;durP2;ratioP2
39044;SDS011;52192;52.002;5.956;2023-08-06T00:00:21;2.13;;;1.30;;
39044;SDS011;52192;52.002;5.956;2023-08-06T00:02:48;2.63;;;1.65;;
39044;SDS011;52192;52.002;5.956;2023-08-06T00:05:14;1.27;;;1.10;;
39044;SDS011;52192;52.002;5.956;2023-08-06T00:07:43;1.25;;;1.00;;
39044;SDS011;52192;52.002;5.956;2023-08-06T00:10:09;2.80;;;1.33;;
39044;SDS011;52192;52.002;5.956;2023-08-06T00:12:35;1.75;;;1.42;;
39044;SDS011;52192;52.002;5.956;2023-08-06T00:15:01;1.50;;;1.20;;
39044;SDS011;52192;52.002;5.956;2023-08-06T00:17:27;1.67;;;1.25;;
39044;SDS011;52192;52.002;5.956;2023-08-06T00:19:52;1.70;;;1.58;;
39044;SDS011;52192;52.002;5.956;2023-08-06T00:22:18;1.35;;;1.00;;
39044;SDS011;52192;52.002;5.956;2023-08-06T00:24:44;1.23;;;1.15;;
39044;SDS011;52192;52.002;5.956;2023-08-06T00:27:09;2.83;;;1.10;;
39044;SDS011;52192;52.002;5.956;2023-08-06T00:29:35;3.08;;;1.48;;
39044;SDS011;52192;52.002;5.956;2023-08-06T00:32:01;1.55;;;1.20;;
39044;SDS011;52192;52.002;5.956;2023-08-06T00:34:26;1.73;;;1.00;;
39044;SDS011;52192;52.002;5.956;2023-08-06T00:36:52;1.70;;;1.30;;
39044;SDS011;52192;52.002;5.956;2023-08-06T00:39:18;2.45;;;1.60;;
39044;SDS011;52192;52.002;5.956;2023-08-06T00:41:44;1.75;;;1.20;;
39044;SDS011;52192;52.002;5.956;2023-08-06T00:44:10;2.13;;;1.48;;
39044;SDS011;52192;52.002;5.956;2023-08-06T00:46:35;1.58;;;1.33;;
39044;SDS011;52192;52.002;5.956;2023-08-06T00:49:01;2.20;;;1.40;;
39044;SDS011;52192;52.002;5.956;2023-08-06T00:51:27;1.38;;;1.02;;
39044;SDS011;52192;52.002;5.956;2023-08-06T00:53:53;1.73;;;1.40;;
39044;SDS011;52192;52.002;5.956;2023-08-06T00:56:20;1.05;;;1.00;;
39044;SDS011;52192;52.002;5.956;2023-08-06T00:58:45;7.28;;;2.03;;
39044;SDS011;52192;52.002;5.956;2023-08-06T01:01:12;2.08;;;1.70;;
39044;SDS011;52192;52.002;5.956;2023-08-06T01:03:37;1.33;;;1.10;;
39044;SDS011;52192;52.002;5.956;2023-08-06T01:06:03;1.88;;;1.73;;
39044;SDS011;52192;52.002;5.956;2023-08-06T01:08:45;1.65;;;1.30;;
39044;SDS011;52192;52.002;5.956;2023-08-06T01:11:33;1.70;;;1.27;;
39044;SDS011;52192;52.002;5.956;2023-08-06T01:14:29;1.58;;;1.27;;
39044;SDS011;52192;52.002;5.956;2023-08-06T01:17:02;2.13;;;1.38;;
39044;SDS011;52192;52.002;5.956;2023-08-06T01:19:29;2.65;;;1.92;;
39044;SDS011;52192;52.002;5.956;2023-08-06T01:21:55;2.60;;;2.00;;
39044;SDS011;52192;52.002;5.956;2023-08-06T01:24:21;4.05;;;1.48;;
39044;SDS011;52192;52.002;5.956;2023-08-06T01:26:55;1.85;;;1.33;;
39044;SDS011;52192;52.002;5.956;2023-08-06T01:29:44;1.42;;;1.10;;
39044;SDS011;52192;52.002;5.956;2023-08-06T01:32:12;2.75;;;1.40;;
39044;SDS011;52192;52.002;5.956;2023-08-06T01:34:41;1.38;;;1.20;;
39044;SDS011;52192;52.002;5.956;2023-08-06T01:37:08;1.83;;;1.17;;
39044;SDS011;52192;52.002;5.956;2023-08-06T01:39:35;2.20;;;1.95;;
39044;SDS011;52192;52.002;5.956;2023-08-06T01:42:01;1.52;;;1.40;;
39044;SDS011;52192;52.002;5.956;2023-08-06T01:44:27;4.35;;;1.77;;
39044;SDS011;52192;52.002;5.956;2023-08-06T01:46:53;2.70;;;1.45;;
39044;SDS011;52192;52.002;5.956;2023-08-06T01:49:19;1.80;;;1.42;;
39044;SDS011;52192;52.002;5.956;2023-08-06T01:51:44;1.65;;;1.30;;
39044;SDS011;52192;52.002;5.956;2023-08-06T01:54:10;2.58;;;1.30;;
39044;SDS011;52192;52.002;5.956;2023-08-06T01:56:35;1.75;;;1.38;;
39044;SDS011;52192;52.002;5.956;2023-08-06T01:59:01;2.25;;;1.40;;
39044;SDS011;52192;52.002;5.956;2023-08-06T02:01:27;3.85;;;1.80;;
39044;SDS011;52192;52.002;5.956;2023-08-06T02:03:52;1.90;;;1.30;;
39044;SDS011;52192;52.002;5.956;2023-08-06T02:06:18;3.63;;;1.35;;
39044;SDS011;52192;52.002;5.956;2023-08-06T02:08:44;2.20;;;1.63;;
39044;SDS011;52192;52.002;5.956;2023-08-06T02:11:10;3.17;;;1.77;;
39044;SDS011;52192;52.002;5.956;2023-08-06T02:13:35;2.20;;;1.45;;
39044;SDS011;52192;52.002;5.956;2023-08-06T02:16:01;2.63;;;1.55;;
39044;SDS011;52192;52.002;5.956;2023-08-06T02:18:26;2.20;;;1.40;;
39044;SDS011;52192;52.002;5.956;2023-08-06T02:20:56;3.42;;;2.13;;
39044;SDS011;52192;52.002;5.956;2023-08-06T02:23:25;2.85;;;1.30;;
39044;SDS011;52192;52.002;5.956;2023-08-06T02:26:01;3.58;;;1.73;;
39044;SDS011;52192;52.002;5.956;2023-08-06T02:28:31;1.98;;;1.48;;
39044;SDS011;52192;52.002;5.956;2023-08-06T02:30:57;1.95;;;1.50;;
39044;SDS011;52192;52.002;5.956;2023-08-06T02:33:23;2.78;;;1.55;;
39044;SDS011;52192;52.002;5.956;2023-08-06T02:35:49;2.13;;;1.58;;
39044;SDS011;52192;52.002;5.956;2023-08-06T02:38:14;1.80;;;1.30;;
39044;SDS011;52192;52.002;5.956;2023-08-06T02:40:46;1.50;;;1.40;;
39044;SDS011;52192;52.002;5.956;2023-08-06T02:43:12;2.30;;;1.55;;
39044;SDS011;52192;52.002;5.956;2023-08-06T02:45:38;2.35;;;1.23;;
39044;SDS011;52192;52.002;5.956;2023-08-06T02:48:04;2.25;;;1.33;;
39044;SDS011;52192;52.002;5.956;2023-08-06T02:50:30;2.15;;;1.60;;
39044;SDS011;52192;52.002;5.956;2023-08-06T02:52:55;1.83;;;1.35;;
39044;SDS011;52192;52.002;5.956;2023-08-06T02:55:21;1.52;;;1.35;;
39044;SDS011;52192;52.002;5.956;2023-08-06T02:57:47;1.40;;;1.20;;
39044;SDS011;52192;52.002;5.956;2023-08-06T03:00:12;1.73;;;0.90;;
39044;SDS011;52192;52.002;5.956;2023-08-06T03:02:38;1.63;;;1.20;;
39044;SDS011;52192;52.002;5.956;2023-08-06T03:05:04;1.35;;;0.93;;
39044;SDS011;52192;52.002;5.956;2023-08-06T03:07:31;2.03;;;1.40;;
39044;SDS011;52192;52.002;5.956;2023-08-06T03:09:58;0.70;;;0.70;;
39044;SDS011;52192;52.002;5.956;2023-08-06T03:12:26;1.02;;;0.90;;
39044;SDS011;52192;52.002;5.956;2023-08-06T03:14:52;0.98;;;0.90;;
39044;SDS011;52192;52.002;5.956;2023-08-06T03:17:18;1.88;;;1.00;;
39044;SDS011;52192;52.002;5.956;2023-08-06T03:19:43;1.20;;;1.05;;
39044;SDS011;52192;52.002;5.956;2023-08-06T03:22:09;0.85;;;0.75;;
39044;SDS011;52192;52.002;5.956;2023-08-06T03:24:35;0.88;;;0.68;;
39044;SDS011;52192;52.002;5.956;2023-08-06T03:27:00;1.63;;;1.13;;
39044;SDS011;52192;52.002;5.956;2023-08-06T03:29:26;0.85;;;0.85;;
39044;SDS011;52192;52.002;5.956;2023-08-06T03:31:52;1.27;;;0.95;;
39044;SDS011;52192;52.002;5.956;2023-08-06T03:34:18;1.73;;;0.90;;
39044;SDS011;52192;52.002;5.956;2023-08-06T03:36:44;1.77;;;1.10;;
39044;SDS011;52192;52.002;5.956;2023-08-06T03:39:09;0.60;;;0.60;;
39044;SDS011;52192;52.002;5.956;2023-08-06T03:41:35;2.58;;;1.55;;
39044;SDS011;52192;52.002;5.956;2023-08-06T03:44:01;1.58;;;0.98;;
39044;SDS011;52192;52.002;5.956;2023-08-06T03:46:28;2.38;;;1.45;;
39044;SDS011;52192;52.002;5.956;2023-08-06T03:48:54;1.42;;;1.08;;
39044;SDS011;52192;52.002;5.956;2023-08-06T03:51:22;1.83;;;1.23;;
39044;SDS011;52192;52.002;5.956;2023-08-06T03:53:47;1.95;;;1.05;;
39044;SDS011;52192;52.002;5.956;2023-08-06T03:56:13;1.23;;;1.10;;
39044;SDS011;52192;52.002;5.956;2023-08-06T03:58:38;1.63;;;1.45;;
39044;SDS011;52192;52.002;5.956;2023-08-06T04:01:04;1.92;;;1.30;;
39044;SDS011;52192;52.002;5.956;2023-08-06T04:03:31;2.00;;;1.60;;
39044;SDS011;52192;52.002;5.956;2023-08-06T04:05:57;2.42;;;1.00;;
39044;SDS011;52192;52.002;5.956;2023-08-06T04:08:22;1.63;;;1.35;;
39044;SDS011;52192;52.002;5.956;2023-08-06T04:10:51;2.58;;;1.35;;
39044;SDS011;52192;52.002;5.956;2023-08-06T04:13:17;4.18;;;1.42;;
39044;SDS011;52192;52.002;5.956;2023-08-06T04:15:43;1.40;;;1.00;;
39044;SDS011;52192;52.002;5.956;2023-08-06T04:18:09;1.58;;;1.33;;
39044;SDS011;52192;52.002;5.956;2023-08-06T04:20:35;1.50;;;1.23;;
39044;SDS011;52192;52.002;5.956;2023-08-06T04:23:08;2.20;;;1.25;;
39044;SDS011;52192;52.002;5.956;2023-08-06T04:25:34;2.28;;;1.63;;
39044;SDS011;52192;52.002;5.956;2023-08-06T04:27:59;1.48;;;1.35;;
39044;SDS011;52192;52.002;5.956;2023-08-06T04:30:25;2.00;;;1.42;;
39044;SDS011;52192;52.002;5.956;2023-08-06T04:32:51;2.45;;;1.65;;
39044;SDS011;52192;52.002;5.956;2023-08-06T04:35:16;1.38;;;1.27;;
39044;SDS011;52192;52.002;5.956;2023-08-06T04:37:42;3.30;;;2.05;;
39044;SDS011;52192;52.002;5.956;2023-08-06T04:40:08;2.72;;;1.35;;
39044;SDS011;52192;52.002;5.956;2023-08-06T04:42:34;2.60;;;2.08;;
39044;SDS011;52192;52.002;5.956;2023-08-06T04:45:00;1.58;;;1.33;;
39044;SDS011;52192;52.002;5.956;2023-08-06T04:47:27;2.10;;;1.55;;
39044;SDS011;52192;52.002;5.956;2023-08-06T04:49:53;1.38;;;1.10;;
39044;SDS011;52192;52.002;5.956;2023-08-06T04:52:18;2.13;;;1.40;;
39044;SDS011;52192;52.002;5.956;2023-08-06T04:54:44;2.72;;;1.75;;
39044;SDS011;52192;52.002;5.956;2023-08-06T04:57:10;1.67;;;1.25;;
39044;SDS011;52192;52.002;5.956;2023-08-06T04:59:35;3.20;;;1.70;;
39044;SDS011;52192;52.002;5.956;2023-08-06T05:02:01;1.95;;;1.27;;
39044;SDS011;52192;52.002;5.956;2023-08-06T05:04:27;2.33;;;1.80;;
39044;SDS011;52192;52.002;5.956;2023-08-06T05:06:53;2.70;;;1.30;;
39044;SDS011;52192;52.002;5.956;2023-08-06T05:09:19;1.70;;;1.52;;
39044;SDS011;52192;52.002;5.956;2023-08-06T05:11:46;1.92;;;1.30;;
39044;SDS011;52192;52.002;5.956;2023-08-06T05:14:12;1.90;;;1.55;;
39044;SDS011;52192;52.002;5.956;2023-08-06T05:16:37;1.98;;;1.75;;
39044;SDS011;52192;52.002;5.956;2023-08-06T05:19:03;1.88;;;1.13;;
39044;SDS011;52192;52.002;5.956;2023-08-06T05:21:29;2.60;;;1.75;;
39044;SDS011;52192;52.002;5.956;2023-08-06T05:23:55;1.73;;;1.55;;
39044;SDS011;52192;52.002;5.956;2023-08-06T05:26:20;2.67;;;1.88;;
39044;SDS011;52192;52.002;5.956;2023-08-06T05:28:46;2.88;;;1.80;;
39044;SDS011;52192;52.002;5.956;2023-08-06T05:31:12;4.38;;;1.85;;
39044;SDS011;52192;52.002;5.956;2023-08-06T05:33:38;2.63;;;1.83;;
39044;SDS011;52192;52.002;5.956;2023-08-06T05:36:03;3.38;;;2.20;;
39044;SDS011;52192;52.002;5.956;2023-08-06T05:38:29;5.13;;;2.70;;
39044;SDS011;52192;52.002;5.956;2023-08-06T05:40:55;2.53;;;1.67;;
39044;SDS011;52192;52.002;5.956;2023-08-06T05:43:21;3.88;;;2.53;;
39044;SDS011;52192;52.002;5.956;2023-08-06T05:45:49;3.13;;;1.77;;
39044;SDS011;52192;52.002;5.956;2023-08-06T05:48:15;3.72;;;2.88;;
39044;SDS011;52192;52.002;5.956;2023-08-06T05:50:41;4.40;;;2.75;;
39044;SDS011;52192;52.002;5.956;2023-08-06T05:53:06;3.58;;;2.33;;
39044;SDS011;52192;52.002;5.956;2023-08-06T05:55:32;2.97;;;2.38;;
39044;SDS011;52192;52.002;5.956;2023-08-06T05:57:59;4.22;;;2.25;;
39044;SDS011;52192;52.002;5.956;2023-08-06T06:00:25;3.83;;;2.20;;
39044;SDS011;52192;52.002;5.956;2023-08-06T06:02:51;6.53;;;2.30;;
39044;SDS011;52192;52.002;5.956;2023-08-06T06:05:16;3.40;;;2.45;;
39044;SDS011;52192;52.002;5.956;2023-08-06T06:07:42;6.15;;;2.58;;
39044;SDS011;52192;52.002;5.956;2023-08-06T06:10:08;4.53;;;2.65;;
39044;SDS011;52192;52.002;5.956;2023-08-06T06:12:34;4.10;;;2.92;;
39044;SDS011;52192;52.002;5.956;2023-08-06T06:14:59;4.63;;;2.80;;
39044;SDS011;52192;52.002;5.956;2023-08-06T06:17:26;2.78;;;1.88;;
39044;SDS011;52192;52.002;5.956;2023-08-06T06:19:52;3.38;;;2.60;;
39044;SDS011;52192;52.002;5.956;2023-08-06T06:22:18;4.25;;;2.47;;
39044;SDS011;52192;52.002;5.956;2023-08-06T06:24:43;3.13;;;1.77;;
39044;SDS011;52192;52.002;5.956;2023-08-06T06:27:09;4.40;;;2.17;;
39044;SDS011;52192;52.002;5.956;2023-08-06T06:29:35;2.47;;;2.05;;
39044;SDS011;52192;52.002;5.956;2023-08-06T06:32:01;2.53;;;1.77;;
39044;SDS011;52192;52.002;5.956;2023-08-06T06:34:26;2.47;;;1.85;;
39044;SDS011;52192;52.002;5.956;2023-08-06T06:36:52;2.45;;;1.35;;
39044;SDS011;52192;52.002;5.956;2023-08-06T06:39:18;2.45;;;1.95;;
39044;SDS011;52192;52.002;5.956;2023-08-06T06:41:43;1.67;;;1.50;;
39044;SDS011;52192;52.002;5.956;2023-08-06T06:44:09;1.92;;;1.20;;
39044;SDS011;52192;52.002;5.956;2023-08-06T06:46:35;2.42;;;1.65;;
39044;SDS011;52192;52.002;5.956;2023-08-06T06:49:00;2.10;;;1.23;;
39044;SDS011;52192;52.002;5.956;2023-08-06T06:51:26;1.83;;;1.40;;
39044;SDS011;52192;52.002;5.956;2023-08-06T06:53:52;3.08;;;1.80;;
39044;SDS011;52192;52.002;5.956;2023-08-06T06:56:17;2.25;;;1.55;;
39044;SDS011;52192;52.002;5.956;2023-08-06T06:58:43;2.80;;;1.38;;
39044;SDS011;52192;52.002;5.956;2023-08-06T07:01:09;2.35;;;2.15;;
39044;SDS011;52192;52.002;5.956;2023-08-06T07:03:36;2.65;;;1.42;;
39044;SDS011;52192;52.002;5.956;2023-08-06T07:06:02;1.63;;;1.45;;
39044;SDS011;52192;52.002;5.956;2023-08-06T07:08:28;1.55;;;1.15;;
39044;SDS011;52192;52.002;5.956;2023-08-06T07:11:04;3.25;;;1.45;;
39044;SDS011;52192;52.002;5.956;2023-08-06T07:13:31;2.08;;;1.50;;
39044;SDS011;52192;52.002;5.956;2023-08-06T07:15:57;1.88;;;1.20;;
39044;SDS011;52192;52.002;5.956;2023-08-06T07:18:23;2.65;;;1.50;;
39044;SDS011;52192;52.002;5.956;2023-08-06T07:20:52;1.88;;;1.30;;
39044;SDS011;52192;52.002;5.956;2023-08-06T07:23:23;2.15;;;1.65;;
39044;SDS011;52192;52.002;5.956;2023-08-06T07:25:50;1.67;;;1.23;;
39044;SDS011;52192;52.002;5.956;2023-08-06T07:28:16;2.30;;;1.50;;
39044;SDS011;52192;52.002;5.956;2023-08-06T07:30:42;1.73;;;1.58;;
39044;SDS011;52192;52.002;5.956;2023-08-06T07:33:08;2.80;;;1.85;;
39044;SDS011;52192;52.002;5.956;2023-08-06T07:35:35;2.30;;;1.88;;
39044;SDS011;52192;52.002;5.956;2023-08-06T07:38:01;2.35;;;1.80;;
39044;SDS011;52192;52.002;5.956;2023-08-06T07:40:27;2.22;;;1.20;;
39044;SDS011;52192;52.002;5.956;2023-08-06T07:42:53;1.88;;;1.52;;
39044;SDS011;52192;52.002;5.956;2023-08-06T07:45:19;1.33;;;1.08;;
39044;SDS011;52192;52.002;5.956;2023-08-06T07:47:45;2.08;;;1.20;;
39044;SDS011;52192;52.002;5.956;2023-08-06T07:50:11;1.85;;;1.48;;
39044;SDS011;52192;52.002;5.956;2023-08-06T07:52:38;3.13;;;2.13;;
39044;SDS011;52192;52.002;5.956;2023-08-06T07:55:03;1.48;;;1.00;;
39044;SDS011;52192;52.002;5.956;2023-08-06T07:57:30;2.25;;;1.35;;
39044;SDS011;52192;52.002;5.956;2023-08-06T07:59:57;1.75;;;1.55;;
39044;SDS011;52192;52.002;5.956;2023-08-06T08:02:23;2.15;;;1.25;;
39044;SDS011;52192;52.002;5.956;2023-08-06T08:04:48;2.33;;;1.63;;
39044;SDS011;52192;52.002;5.956;2023-08-06T08:07:14;3.20;;;2.45;;
39044;SDS011;52192;52.002;5.956;2023-08-06T08:09:40;1.65;;;1.10;;
39044;SDS011;52192;52.002;5.956;2023-08-06T08:12:06;2.42;;;1.52;;
39044;SDS011;52192;52.002;5.956;2023-08-06T08:14:32;2.35;;;1.88;;
39044;SDS011;52192;52.002;5.956;2023-08-06T08:17:01;2.20;;;1.48;;
39044;SDS011;52192;52.002;5.956;2023-08-06T08:19:27;1.52;;;1.20;;
39044;SDS011;52192;52.002;5.956;2023-08-06T08:21:53;3.63;;;2.30;;
39044;SDS011;52192;52.002;5.956;2023-08-06T08:24:19;2.95;;;2.10;;
39044;SDS011;52192;52.002;5.956;2023-08-06T08:26:48;2.13;;;1.90;;
39044;SDS011;52192;52.002;5.956;2023-08-06T08:29:18;2.63;;;1.88;;
39044;SDS011;52192;52.002;5.956;2023-08-06T08:31:45;3.35;;;2.15;;
39044;SDS011;52192;52.002;5.956;2023-08-06T08:34:10;3.33;;;2.20;;
39044;SDS011;52192;52.002;5.956;2023-08-06T08:36:36;2.50;;;2.00;;
39044;SDS011;52192;52.002;5.956;2023-08-06T08:39:02;3.10;;;1.83;;
39044;SDS011;52192;52.002;5.956;2023-08-06T08:41:29;4.60;;;2.33;;
39044;SDS011;52192;52.002;5.956;2023-08-06T08:43:56;4.13;;;2.20;;
39044;SDS011;52192;52.002;5.956;2023-08-06T08:46:24;3.35;;;2.35;;
39044;SDS011;52192;52.002;5.956;2023-08-06T08:48:51;2.08;;;1.63;;
39044;SDS011;52192;52.002;5.956;2023-08-06T08:51:17;2.55;;;2.22;;
39044;SDS011;52192;52.002;5.956;2023-08-06T08:53:44;2.28;;;1.60;;
39044;SDS011;52192;52.002;5.956;2023-08-06T08:56:12;2.85;;;1.80;;
39044;SDS011;52192;52.002;5.956;2023-08-06T08:58:39;1.85;;;1.48;;
39044;SDS011;52192;52.002;5.956;2023-08-06T09:01:05;2.63;;;1.52;;
39044;SDS011;52192;52.002;5.956;2023-08-06T09:03:32;4.38;;;2.08;;
39044;SDS011;52192;52.002;5.956;2023-08-06T09:05:59;1.85;;;1.70;;
39044;SDS011;52192;52.002;5.956;2023-08-06T09:08:29;2.28;;;1.92;;
39044;SDS011;52192;52.002;5.956;2023-08-06T09:11:04;2.67;;;1.88;;
39044;SDS011;52192;52.002;5.956;2023-08-06T09:13:34;2.22;;;1.42;;
39044;SDS011;52192;52.002;5.956;2023-08-06T09:16:02;2.65;;;1.85;;
39044;SDS011;52192;52.002;5.956;2023-08-06T09:18:30;2.72;;;2.05;;
39044;SDS011;52192;52.002;5.956;2023-08-06T09:20:57;6.00;;;2.13;;
39044;SDS011;52192;52.002;5.956;2023-08-06T09:23:29;3.22;;;1.55;;
39044;SDS011;52192;52.002;5.956;2023-08-06T09:25:56;3.08;;;1.90;;
39044;SDS011;52192;52.002;5.956;2023-08-06T09:28:22;1.50;;;1.40;;
39044;SDS011;52192;52.002;5.956;2023-08-06T09:30:49;1.80;;;1.55;;
39044;SDS011;52192;52.002;5.956;2023-08-06T09:33:19;1.58;;;1.48;;
39044;SDS011;52192;52.002;5.956;2023-08-06T09:35:45;1.90;;;1.35;;
39044;SDS011;52192;52.002;5.956;2023-08-06T09:38:12;1.92;;;1.35;;
39044;SDS011;52192;52.002;5.956;2023-08-06T09:40:38;2.38;;;1.50;;
39044;SDS011;52192;52.002;5.956;2023-08-06T09:43:05;1.58;;;1.48;;
39044;SDS011;52192;52.002;5.956;2023-08-06T09:45:32;1.40;;;1.30;;
39044;SDS011;52192;52.002;5.956;2023-08-06T09:48:00;1.80;;;1.40;;
39044;SDS011;52192;52.002;5.956;2023-08-06T09:50:29;2.10;;;1.35;;
39044;SDS011;52192;52.002;5.956;2023-08-06T09:52:56;2.25;;;1.95;;
39044;SDS011;52192;52.002;5.956;2023-08-06T09:55:23;2.50;;;1.50;;
39044;SDS011;52192;52.002;5.956;2023-08-06T09:57:52;1.92;;;1.58;;
39044;SDS011;52192;52.002;5.956;2023-08-06T10:00:19;2.65;;;1.73;;
39044;SDS011;52192;52.002;5.956;2023-08-06T10:02:47;1.60;;;1.27;;
39044;SDS011;52192;52.002;5.956;2023-08-06T10:05:14;1.17;;;1.08;;
39044;SDS011;52192;52.002;5.956;2023-08-06T10:07:41;1.70;;;1.55;;
39044;SDS011;52192;52.002;5.956;2023-08-06T10:10:09;1.80;;;1.30;;
39044;SDS011;52192;52.002;5.956;2023-08-06T10:12:42;1.42;;;1.30;;
39044;SDS011;52192;52.002;5.956;2023-08-06T10:15:14;1.15;;;1.05;;
39044;SDS011;52192;52.002;5.956;2023-08-06T10:17:42;1.73;;;1.40;;
39044;SDS011;52192;52.002;5.956;2023-08-06T10:20:10;2.85;;;1.58;;
39044;SDS011;52192;52.002;5.956;2023-08-06T10:22:37;1.65;;;1.50;;
39044;SDS011;52192;52.002;5.956;2023-08-06T10:25:08;2.25;;;1.60;;
39044;SDS011;52192;52.002;5.956;2023-08-06T10:27:35;2.70;;;2.03;;
39044;SDS011;52192;52.002;5.956;2023-08-06T10:30:26;3.50;;;2.70;;
39044;SDS011;52192;52.002;5.956;2023-08-06T10:32:54;5.10;;;3.05;;
39044;SDS011;52192;52.002;5.956;2023-08-06T10:35:36;5.63;;;3.03;;
39044;SDS011;52192;52.002;5.956;2023-08-06T10:38:07;3.35;;;2.05;;
39044;SDS011;52192;52.002;5.956;2023-08-06T10:43:01;3.90;;;2.55;;
39044;SDS011;52192;52.002;5.956;2023-08-06T10:45:29;4.82;;;3.55;;
39044;SDS011;52192;52.002;5.956;2023-08-06T10:47:55;3.60;;;2.35;;
39044;SDS011;52192;52.002;5.956;2023-08-06T10:50:22;2.50;;;1.48;;
39044;SDS011;52192;52.002;5.956;2023-08-06T10:52:49;1.17;;;0.70;;
39044;SDS011;52192;52.002;5.956;2023-08-06T10:55:21;0.75;;;0.47;;
39044;SDS011;52192;52.002;5.956;2023-08-06T10:57:51;0.82;;;0.45;;
39044;SDS011;52192;52.002;5.956;2023-08-06T11:00:17;0.20;;;0.20;;
39044;SDS011;52192;52.002;5.956;2023-08-06T11:02:43;0.73;;;0.40;;
39044;SDS011;52192;52.002;5.956;2023-08-06T11:05:09;0.22;;;0.22;;
39044;SDS011;52192;52.002;5.956;2023-08-06T11:07:36;0.20;;;0.20;;
39044;SDS011;52192;52.002;5.956;2023-08-06T11:10:06;0.38;;;0.38;;
39044;SDS011;52192;52.002;5.956;2023-08-06T11:12:33;0.32;;;0.30;;
39044;SDS011;52192;52.002;5.956;2023-08-06T11:15:00;0.30;;;0.30;;
39044;SDS011;52192;52.002;5.956;2023-08-06T11:17:27;0.25;;;0.25;;
39044;SDS011;52192;52.002;5.956;2023-08-06T11:19:54;0.43;;;0.40;;
39044;SDS011;52192;52.002;5.956;2023-08-06T11:22:21;0.32;;;0.32;;
39044;SDS011;52192;52.002;5.956;2023-08-06T11:24:47;0.30;;;0.30;;
39044;SDS011;52192;52.002;5.956;2023-08-06T11:27:14;0.77;;;0.30;;
39044;SDS011;52192;52.002;5.956;2023-08-06T11:29:40;0.50;;;0.30;;
39044;SDS011;52192;52.002;5.956;2023-08-06T11:32:10;0.75;;;0.75;;
39044;SDS011;52192;52.002;5.956;2023-08-06T11:34:36;0.28;;;0.28;;
39044;SDS011;52192;52.002;5.956;2023-08-06T11:37:03;0.50;;;0.40;;
39044;SDS011;52192;52.002;5.956;2023-08-06T11:39:32;0.65;;;0.40;;
39044;SDS011;52192;52.002;5.956;2023-08-06T11:41:59;0.22;;;0.22;;
39044;SDS011;52192;52.002;5.956;2023-08-06T11:44:29;0.82;;;0.57;;
39044;SDS011;52192;52.002;5.956;2023-08-06T11:54:36;0.55;;;0.40;;
39044;SDS011;52192;52.002;5.956;2023-08-06T11:57:03;0.30;;;0.30;;
39044;SDS011;52192;52.002;5.956;2023-08-06T11:59:31;0.40;;;0.40;;
39044;SDS011;52192;52.002;5.956;2023-08-06T12:01:57;0.50;;;0.50;;
39044;SDS011;52192;52.002;5.956;2023-08-06T12:04:25;0.50;;;0.50;;
39044;SDS011;52192;52.002;5.956;2023-08-06T12:06:50;0.40;;;0.40;;
39044;SDS011;52192;52.002;5.956;2023-08-06T12:09:16;5.07;;;1.15;;
39044;SDS011;52192;52.002;5.956;2023-08-06T12:11:42;0.40;;;0.38;;
39044;SDS011;52192;52.002;5.956;2023-08-06T12:14:08;0.77;;;0.38;;
39044;SDS011;52192;52.002;5.956;2023-08-06T12:16:33;0.70;;;0.57;;
39044;SDS011;52192;52.002;5.956;2023-08-06T12:19:01;1.00;;;0.50;;
39044;SDS011;52192;52.002;5.956;2023-08-06T12:21:26;1.35;;;0.80;;
39044;SDS011;52192;52.002;5.956;2023-08-06T12:23:52;1.30;;;0.65;;
39044;SDS011;52192;52.002;5.956;2023-08-06T12:26:18;1.20;;;0.75;;
39044;SDS011;52192;52.002;5.956;2023-08-06T12:28:43;1.65;;;0.70;;
39044;SDS011;52192;52.002;5.956;2023-08-06T12:31:09;0.47;;;0.43;;
39044;SDS011;52192;52.002;5.956;2023-08-06T12:33:35;1.02;;;0.90;;
39044;SDS011;52192;52.002;5.956;2023-08-06T12:36:00;0.73;;;0.60;;
39044;SDS011;52192;52.002;5.956;2023-08-06T12:38:26;1.35;;;0.80;;
39044;SDS011;52192;52.002;5.956;2023-08-06T12:40:51;2.65;;;1.10;;
39044;SDS011;52192;52.002;5.956;2023-08-06T12:43:17;0.85;;;0.75;;
39044;SDS011;52192;52.002;5.956;2023-08-06T12:45:43;1.45;;;0.90;;
39044;SDS011;52192;52.002;5.956;2023-08-06T12:48:09;0.65;;;0.60;;
39044;SDS011;52192;52.002;5.956;2023-08-06T12:50:35;1.40;;;0.90;;
39044;SDS011;52192;52.002;5.956;2023-08-06T12:53:01;0.55;;;0.52;;
39044;SDS011;52192;52.002;5.956;2023-08-06T12:55:27;0.70;;;0.60;;
39044;SDS011;52192;52.002;5.956;2023-08-06T12:57:53;0.77;;;0.65;;
39044;SDS011;52192;52.002;5.956;2023-08-06T13:00:18;0.70;;;0.70;;
39044;SDS011;52192;52.002;5.956;2023-08-06T13:02:44;1.15;;;0.68;;
39044;SDS011;52192;52.002;5.956;2023-08-06T13:05:10;1.38;;;0.82;;
39044;SDS011;52192;52.002;5.956;2023-08-06T13:07:35;0.82;;;0.60;;
39044;SDS011;52192;52.002;5.956;2023-08-06T13:10:01;1.10;;;0.68;;
39044;SDS011;52192;52.002;5.956;2023-08-06T13:12:27;0.52;;;0.40;;
39044;SDS011;52192;52.002;5.956;2023-08-06T13:14:52;1.65;;;0.60;;
39044;SDS011;52192;52.002;5.956;2023-08-06T13:17:20;1.90;;;0.77;;
39044;SDS011;52192;52.002;5.956;2023-08-06T13:19:46;0.75;;;0.52;;
39044;SDS011;52192;52.002;5.956;2023-08-06T13:22:11;0.45;;;0.43;;
39044;SDS011;52192;52.002;5.956;2023-08-06T13:24:37;0.80;;;0.55;;
39044;SDS011;52192;52.002;5.956;2023-08-06T13:27:03;0.70;;;0.70;;
39044;SDS011;52192;52.002;5.956;2023-08-06T13:29:29;0.60;;;0.50;;
39044;SDS011;52192;52.002;5.956;2023-08-06T13:31:54;0.38;;;0.38;;
39044;SDS011;52192;52.002;5.956;2023-08-06T13:34:20;0.70;;;0.70;;
39044;SDS011;52192;52.002;5.956;2023-08-06T13:36:46;0.60;;;0.50;;
39044;SDS011;52192;52.002;5.956;2023-08-06T13:39:12;0.40;;;0.40;;
39044;SDS011;52192;52.002;5.956;2023-08-06T13:41:37;3.92;;;0.70;;
39044;SDS011;52192;52.002;5.956;2023-08-06T13:44:05;0.45;;;0.45;;
39044;SDS011;52192;52.002;5.956;2023-08-06T13:46:31;1.05;;;0.73;;
39044;SDS011;52192;52.002;5.956;2023-08-06T13:48:57;1.40;;;0.95;;
39044;SDS011;52192;52.002;5.956;2023-08-06T13:51:23;0.43;;;0.40;;
39044;SDS011;52192;52.002;5.956;2023-08-06T13:53:48;0.70;;;0.50;;
39044;SDS011;52192;52.002;5.956;2023-08-06T13:56:14;0.50;;;0.40;;
39044;SDS011;52192;52.002;5.956;2023-08-06T13:58:42;1.00;;;0.73;;
39044;SDS011;52192;52.002;5.956;2023-08-06T14:01:09;0.80;;;0.50;;
39044;SDS011;52192;52.002;5.956;2023-08-06T14:03:36;0.88;;;0.68;;
39044;SDS011;52192;52.002;5.956;2023-08-06T14:06:02;0.93;;;0.70;;
39044;SDS011;52192;52.002;5.956;2023-08-06T14:08:27;1.48;;;0.95;;
39044;SDS011;52192;52.002;5.956;2023-08-06T14:10:53;0.55;;;0.45;;
39044;SDS011;52192;52.002;5.956;2023-08-06T14:13:19;0.50;;;0.50;;
39044;SDS011;52192;52.002;5.956;2023-08-06T14:15:46;2.35;;;0.52;;
39044;SDS011;52192;52.002;5.956;2023-08-06T14:18:12;0.90;;;0.55;;
39044;SDS011;52192;52.002;5.956;2023-08-06T14:20:39;1.35;;;0.70;;
39044;SDS011;52192;52.002;5.956;2023-08-06T14:23:05;0.85;;;0.73;;
39044;SDS011;52192;52.002;5.956;2023-08-06T14:25:31;1.00;;;0.70;;
39044;SDS011;52192;52.002;5.956;2023-08-06T14:27:57;0.70;;;0.60;;
39044;SDS011;52192;52.002;5.956;2023-08-06T14:30:22;2.25;;;0.93;;
39044;SDS011;52192;52.002;5.956;2023-08-06T14:32:48;3.15;;;0.80;;
39044;SDS011;52192;52.002;5.956;2023-08-06T14:35:14;1.67;;;0.88;;
39044;SDS011;52192;52.002;5.956;2023-08-06T14:37:40;1.08;;;0.93;;
39044;SDS011;52192;52.002;5.956;2023-08-06T14:40:06;0.57;;;0.40;;
39044;SDS011;52192;52.002;5.956;2023-08-06T14:42:33;1.20;;;0.80;;
39044;SDS011;52192;52.002;5.956;2023-08-06T14:44:58;0.52;;;0.52;;
39044;SDS011;52192;52.002;5.956;2023-08-06T14:47:24;0.75;;;0.75;;
39044;SDS011;52192;52.002;5.956;2023-08-06T14:49:50;0.63;;;0.63;;
39044;SDS011;52192;52.002;5.956;2023-08-06T14:52:16;0.70;;;0.70;;
39044;SDS011;52192;52.002;5.956;2023-08-06T14:54:45;0.95;;;0.70;;